Time;durP1;ratioP1;P1;durP2;ratioP2;P2;SDS_P1;SDS_P2;PMS_P1;PMS_P2;Temp;Humidity;BMP_temperature;BMP_pressure;BME280_temperature;BME280_humidity;BME280_pressure;Samples;Min_cycle;Max_cycle;Signal;HPM_P1;HPM_P2
2023/02/02 00:08:09;;;;;;;29.93;12.60;;;;;;;1.28;100.00;99350.53;31390064;28;20049;-77
2023/02/02 00:23:11;;;;;;;37.63;12.90;;;;;;;1.23;100.00;99386.41;31345494;28;20041;-78
2023/02/02 00:38:13;;;;;;;31.30;12.73;;;;;;;0.97;100.00;99379.34;31278026;28;20064;-77
2023/02/02 00:53:14;;;;;;;37.83;14.07;;;;;;;0.75;100.00;99361.63;31335087;28;20493;-77
2023/02/02 01:08:17;;;;;;;43.50;15.70;;;;;;;0.82;100.00;99350.22;31323862;28;20206;-77
2023/02/02 01:23:19;;;;;;;33.63;14.57;;;;;;;0.71;100.00;99344.03;31316755;28;20048;-77
2023/02/02 01:38:22;;;;;;;24.47;8.43;;;;;;;0.83;100.00;99373.91;31317904;28;20103;-77
2023/02/02 01:53:25;;;;;;;18.20;8.63;;;;;;;0.81;100.00;99375.41;31299036;28;20045;-77
2023/02/02 02:08:36;;;;;;;36.97;12.90;;;;;;;0.79;100.00;99367.00;31318739;28;20087;-79
2023/02/02 06:40:44;;;;;;;35.33;10.80;;;;;;;2.48;100.00;97919.03;31788555;27;20387;-74
2023/02/02 06:55:52;;;;;;;35.67;13.63;;;;;;;2.39;100.00;98123.09;31814916;27;20393;-77
2023/02/02 07:10:54;;;;;;;27.67;12.50;;;;;;;2.32;100.00;98950.69;31808709;27;20065;-76
2023/02/02 07:26:18;;;;;;;32.97;12.80;;;;;;;2.76;100.00;99183.22;31811570;27;20579;-76
2023/02/02 07:41:20;;;;;;;26.77;11.27;;;;;;;3.43;100.00;99284.13;31736677;28;20044;-75
2023/02/02 07:56:25;;;;;;;37.70;13.87;;;;;;;3.61;100.00;99364.56;31732271;28;20424;-76
2023/02/02 08:11:28;;;;;;;30.53;13.43;;;;;;;6.00;100.00;99455.78;31697989;28;20388;-75
2023/02/02 08:26:31;;;;;;;19.67;10.70;;;;;;;9.20;100.00;99646.63;31718928;28;20060;-75
2023/02/02 08:41:33;;;;;;;22.47;10.70;;;;;;;9.97;100.00;99709.53;31696761;28;20044;-75
2023/02/02 08:56:36;;;;;;;27.00;13.57;;;;;;;9.04;100.00;99686.41;31701823;28;20047;-85
2023/02/02 09:11:38;;;;;;;32.57;13.10;;;;;;;7.75;100.00;99703.28;31697634;27;20501;-76
2023/02/02 09:26:42;;;;;;;31.73;13.60;;;;;;;7.96;100.00;99692.16;31707340;28;20633;-85
2023/02/02 09:41:54;;;;;;;22.17;11.23;;;;;;;8.85;100.00;99706.88;31696157;28;20055;-81
2023/02/02 09:57:03;;;;;;;27.60;11.33;;;;;;;6.83;100.00;99700.59;31710048;27;20427;-80
2023/02/02 14:36:24;;;;;;;20.37;8.20;;;;;;;3.47;100.00;99359.25;30961086;28;20406;-81
2023/02/02 14:51:29;;;;;;;17.97;9.57;;;;;;;3.37;100.00;99425.94;30803209;28;20050;-79
2023/02/02 15:06:34;;;;;;;22.70;9.57;;;;;;;3.41;100.00;99474.25;30828514;28;20139;-73
2023/02/02 15:21:38;;;;;;;21.40;8.40;;;;;;;3.43;100.00;99520.25;30823637;28;20059;-71
2023/02/02 15:36:45;;;;;;;23.13;8.53;;;;;;;3.21;100.00;99529.44;30760518;28;20043;-83
2023/02/02 15:51:51;;;;;;;7.77;5.20;;;;;;;3.14;100.00;99526.75;30753608;28;20062;-80
2023/02/02 16:06:54;;;;;;;17.10;8.10;;;;;;;3.51;100.00;99551.31;30767664;28;20097;-83
2023/02/02 16:22:03;;;;;;;11.93;6.67;;;;;;;4.16;100.00;99614.53;30765117;28;20115;-74
2023/02/02 16:37:21;;;;;;;11.80;6.37;;;;;;;4.40;100.00;99626.38;30732774;28;20052;-80
2023/02/02 16:52:26;;;;;;;14.47;6.73;;;;;;;4.77;100.00;99693.09;30740677;28;20062;-82
2023/02/02 17:07:32;;;;;;;11.63;6.57;;;;;;;4.35;100.00;99675.91;30773859;28;20089;-73
2023/02/02 17:22:40;;;;;;;18.70;7.43;;;;;;;4.23;100.00;99676.31;30764300;28;20066;-77
2023/02/02 17:37:42;;;;;;;14.50;7.40;;;;;;;4.05;100.00;99673.63;30749173;28;20050;-74
2023/02/02 17:52:47;;;;;;;11.23;6.47;;;;;;;3.81;100.00;99652.16;30714546;28;20564;-80
2023/02/02 18:07:51;;;;;;;18.40;7.90;;;;;;;3.81;100.00;99662.88;30718677;28;20060;-82
2023/02/02 18:22:55;;;;;;;15.40;6.70;;;;;;;3.84;100.00;99687.06;30758924;28;20320;-81
2023/02/02 18:37:58;;;;;;;15.43;9.37;;;;;;;3.40;100.00;99682.78;30735143;28;20076;-75
2023/02/02 18:53:03;;;;;;;10.07;5.10;;;;;;;3.27;100.00;99672.78;30725637;28;20089;-78
2023/02/02 19:08:08;;;;;;;9.73;4.50;;;;;;;3.16;100.00;99662.00;30781710;28;20519;-82
2023/02/02 19:23:12;;;;;;;9.40;4.27;;;;;;;3.20;100.00;99689.59;30742155;28;20508;-78
2023/02/02 19:38:19;;;;;;;7.83;3.60;;;;;;;3.19;100.00;99720.25;30805186;28;20047;-83
2023/02/02 19:53:34;;;;;;;8.50;3.53;;;;;;;3.35;100.00;99722.59;30728726;28;20051;-77
2023/02/02 20:08:41;;;;;;;8.90;4.70;;;;;;;3.40;100.00;99735.66;30733727;28;20059;-76
2023/02/02 20:23:44;;;;;;;5.60;3.83;;;;;;;3.21;100.00;99749.41;30724897;28;20055;-81
2023/02/02 20:38:46;;;;;;;6.93;3.33;;;;;;;3.33;100.00;99757.88;30722085;28;20074;-83
2023/02/02 20:53:56;;;;;;;6.83;3.50;;;;;;;3.21;100.00;99778.91;30735799;28;20060;-81
2023/02/02 21:09:02;;;;;;;9.47;3.60;;;;;;;3.29;100.00;99785.84;30718545;28;20437;-81
2023/02/02 21:24:08;;;;;;;5.30;3.07;;;;;;;3.17;100.00;99789.59;30721310;28;20185;-77
2023/02/02 21:39:21;;;;;;;6.47;2.23;;;;;;;3.15;100.00;99797.25;30717630;28;20059;-78
2023/02/02 21:54:26;;;;;;;6.73;3.07;;;;;;;3.08;100.00;99818.66;30661500;28;20067;-77
2023/02/02 22:09:42;;;;;;;9.60;4.00;;;;;;;3.06;100.00;99808.34;30716555;28;20055;-78
2023/02/02 22:24:50;;;;;;;6.17;3.47;;;;;;;2.58;100.00;99807.63;30731573;28;20110;-79
2023/02/02 22:39:52;;;;;;;6.33;3.50;;;;;;;2.36;100.00;99808.59;30757119;28;20146;-79
2023/02/02 22:54:54;;;;;;;10.67;3.50;;;;;;;2.09;100.00;99788.44;30764052;28;20051;-79
2023/02/02 23:09:56;;;;;;;4.50;3.33;;;;;;;2.09;100.00;99767.78;30720100;28;20047;-79
2023/02/02 23:24:59;;;;;;;4.20;3.23;;;;;;;1.88;100.00;99778.31;30731359;28;20131;-78
2023/02/02 23:40:01;;;;;;;7.00;3.97;;;;;;;1.75;100.00;99785.03;30720326;28;20118;-79
2023/02/02 23:55:07;;;;;;;9.07;4.67;;;;;;;1.79;100.00;99793.88;30770536;28;20058;-76
